sensor_id;sensor_type;location;lat;lon;timestamp;P1;durP1;ratioP1;P2;durP2;ratioP2
46222;SDS011;31943;51.410;7.564;2023-01-29T06:54:21;53.25;;;31.58;;
46222;SDS011;31943;51.410;7.564;2023-01-29T06:56:48;57.42;;;32.85;;
46222;SDS011;31943;51.410;7.564;2023-01-29T06:59:15;54.50;;;32.72;;
46222;SDS011;31943;51.410;7.564;2023-01-29T07:01:41;49.65;;;32.30;;
46222;SDS011;31943;51.410;7.564;2023-01-29T07:04:07;55.78;;;33.00;;
46222;SDS011;31943;51.410;7.564;2023-01-29T07:06:33;54.47;;;32.75;;
46222;SDS011;31943;51.410;7.564;2023-01-29T07:08:59;49.00;;;30.38;;
46222;SDS011;31943;51.410;7.564;2023-01-29T07:11:26;53.55;;;32.10;;
46222;SDS011;31943;51.410;7.564;2023-01-29T07:13:51;51.50;;;31.55;;
46222;SDS011;31943;51.410;7.564;2023-01-29T07:16:18;50.67;;;32.40;;
46222;SDS011;31943;51.410;7.564;2023-01-29T07:18:44;54.97;;;33.03;;
46222;SDS011;31943;51.410;7.564;2023-01-29T07:21:09;52.33;;;31.90;;
46222;SDS011;31943;51.410;7.564;2023-01-29T07:25:55;51.45;;;32.72;;
46222;SDS011;31943;51.410;7.564;2023-01-29T07:28:25;55.47;;;32.27;;
46222;SDS011;31943;51.410;7.564;2023-01-29T07:30:54;53.97;;;31.35;;
46222;SDS011;31943;51.410;7.564;2023-01-29T07:33:20;55.65;;;32.53;;
46222;SDS011;31943;51.410;7.564;2023-01-29T07:35:45;53.97;;;35.10;;
46222;SDS011;31943;51.410;7.564;2023-01-29T07:38:11;49.33;;;30.95;;
46222;SDS011;31943;51.410;7.564;2023-01-29T07:40:37;52.20;;;31.58;;
46222;SDS011;31943;51.410;7.564;2023-01-29T07:43:08;51.33;;;32.80;;
46222;SDS011;31943;51.410;7.564;2023-01-29T07:45:35;50.03;;;31.55;;
46222;SDS011;31943;51.410;7.564;2023-01-29T07:48:02;51.15;;;31.95;;
46222;SDS011;31943;51.410;7.564;2023-01-29T07:50:29;55.15;;;33.30;;
46222;SDS011;31943;51.410;7.564;2023-01-29T07:52:54;51.60;;;31.65;;
46222;SDS011;31943;51.410;7.564;2023-01-29T07:55:20;52.85;;;33.25;;
46222;SDS011;31943;51.410;7.564;2023-01-29T07:57:50;50.58;;;30.17;;
46222;SDS011;31943;51.410;7.564;2023-01-29T08:00:22;49.28;;;30.63;;
46222;SDS011;31943;51.410;7.564;2023-01-29T08:02:49;49.75;;;30.85;;
46222;SDS011;31943;51.410;7.564;2023-01-29T08:05:15;50.78;;;32.17;;
46222;SDS011;31943;51.410;7.564;2023-01-29T08:07:41;47.83;;;31.10;;
46222;SDS011;31943;51.410;7.564;2023-01-29T08:10:08;51.17;;;31.73;;
46222;SDS011;31943;51.410;7.564;2023-01-29T08:12:34;49.92;;;31.40;;
46222;SDS011;31943;51.410;7.564;2023-01-29T08:15:00;54.78;;;31.40;;
46222;SDS011;31943;51.410;7.564;2023-01-29T08:17:27;53.65;;;31.42;;
46222;SDS011;31943;51.410;7.564;2023-01-29T08:19:53;49.03;;;31.75;;
46222;SDS011;31943;51.410;7.564;2023-01-29T08:22:18;47.72;;;30.98;;
46222;SDS011;31943;51.410;7.564;2023-01-29T08:24:44;55.85;;;34.55;;
46222;SDS011;31943;51.410;7.564;2023-01-29T08:27:10;55.03;;;33.15;;
46222;SDS011;31943;51.410;7.564;2023-01-29T08:29:36;53.65;;;33.47;;
46222;SDS011;31943;51.410;7.564;2023-01-29T08:32:02;55.78;;;34.60;;
46222;SDS011;31943;51.410;7.564;2023-01-29T08:34:29;57.25;;;34.28;;
46222;SDS011;31943;51.410;7.564;2023-01-29T08:36:55;53.80;;;34.30;;
46222;SDS011;31943;51.410;7.564;2023-01-29T08:39:21;53.60;;;34.28;;
46222;SDS011;31943;51.410;7.564;2023-01-29T08:41:47;56.97;;;35.45;;
46222;SDS011;31943;51.410;7.564;2023-01-29T08:44:14;52.17;;;33.50;;
46222;SDS011;31943;51.410;7.564;2023-01-29T08:46:39;49.30;;;31.52;;
46222;SDS011;31943;51.410;7.564;2023-01-29T08:49:05;53.75;;;32.83;;
46222;SDS011;31943;51.410;7.564;2023-01-29T08:51:32;51.03;;;32.53;;
46222;SDS011;31943;51.410;7.564;2023-01-29T08:53:58;48.05;;;32.13;;
46222;SDS011;31943;51.410;7.564;2023-01-29T08:56:23;47.88;;;30.17;;
46222;SDS011;31943;51.410;7.564;2023-01-29T08:58:49;47.97;;;30.10;;
46222;SDS011;31943;51.410;7.564;2023-01-29T09:01:14;48.65;;;32.05;;
46222;SDS011;31943;51.410;7.564;2023-01-29T09:03:40;48.65;;;31.15;;
46222;SDS011;31943;51.410;7.564;2023-01-29T09:06:07;51.88;;;32.17;;
46222;SDS011;31943;51.410;7.564;2023-01-29T09:08:35;53.40;;;31.55;;
46222;SDS011;31943;51.410;7.564;2023-01-29T09:11:01;53.03;;;33.97;;
46222;SDS011;31943;51.410;7.564;2023-01-29T09:13:26;52.10;;;32.47;;
46222;SDS011;31943;51.410;7.564;2023-01-29T09:15:52;47.33;;;30.42;;
46222;SDS011;31943;51.410;7.564;2023-01-29T09:18:18;47.22;;;29.25;;
46222;SDS011;31943;51.410;7.564;2023-01-29T09:20:43;48.75;;;31.95;;
46222;SDS011;31943;51.410;7.564;2023-01-29T09:23:09;49.70;;;32.75;;
46222;SDS011;31943;51.410;7.564;2023-01-29T09:25:37;47.97;;;31.60;;
46222;SDS011;31943;51.410;7.564;2023-01-29T09:28:04;53.60;;;32.38;;
46222;SDS011;31943;51.410;7.564;2023-01-29T09:30:29;48.47;;;32.45;;
46222;SDS011;31943;51.410;7.564;2023-01-29T09:32:55;52.05;;;32.78;;
46222;SDS011;31943;51.410;7.564;2023-01-29T09:35:21;49.50;;;31.60;;
46222;SDS011;31943;51.410;7.564;2023-01-29T09:37:47;52.67;;;32.90;;
46222;SDS011;31943;51.410;7.564;2023-01-29T09:40:15;52.83;;;33.55;;
46222;SDS011;31943;51.410;7.564;2023-01-29T09:42:49;50.67;;;31.80;;
46222;SDS011;31943;51.410;7.564;2023-01-29T09:45:21;50.60;;;32.50;;
46222;SDS011;31943;51.410;7.564;2023-01-29T09:47:50;50.17;;;31.52;;
46222;SDS011;31943;51.410;7.564;2023-01-29T09:50:25;53.35;;;33.15;;
46222;SDS011;31943;51.410;7.564;2023-01-29T09:52:55;53.50;;;33.15;;
46222;SDS011;31943;51.410;7.564;2023-01-29T09:55:26;51.38;;;33.85;;
46222;SDS011;31943;51.410;7.564;2023-01-29T09:57:56;48.13;;;32.33;;
46222;SDS011;31943;51.410;7.564;2023-01-29T10:00:24;46.25;;;30.70;;
46222;SDS011;31943;51.410;7.564;2023-01-29T10:03:11;49.83;;;32.92;;
46222;SDS011;31943;51.410;7.564;2023-01-29T10:05:54;52.28;;;32.38;;
46222;SDS011;31943;51.410;7.564;2023-01-29T10:11:48;50.17;;;32.38;;
46222;SDS011;31943;51.410;7.564;2023-01-29T10:14:27;50.88;;;33.95;;
46222;SDS011;31943;51.410;7.564;2023-01-29T10:17:03;51.03;;;33.13;;
46222;SDS011;31943;51.410;7.564;2023-01-29T10:19:48;46.35;;;31.42;;
46222;SDS011;31943;51.410;7.564;2023-01-29T10:22:39;46.70;;;30.77;;
46222;SDS011;31943;51.410;7.564;2023-01-29T10:25:19;46.40;;;30.95;;
46222;SDS011;31943;51.410;7.564;2023-01-29T10:27:46;47.83;;;31.63;;
46222;SDS011;31943;51.410;7.564;2023-01-29T10:30:25;47.20;;;31.65;;
46222;SDS011;31943;51.410;7.564;2023-01-29T10:32:55;50.20;;;31.77;;
46222;SDS011;31943;51.410;7.564;2023-01-29T10:35:27;44.70;;;31.17;;
46222;SDS011;31943;51.410;7.564;2023-01-29T10:37:55;45.58;;;31.48;;
46222;SDS011;31943;51.410;7.564;2023-01-29T10:40:28;48.58;;;32.45;;
46222;SDS011;31943;51.410;7.564;2023-01-29T10:43:02;46.50;;;31.17;;
46222;SDS011;31943;51.410;7.564;2023-01-29T10:45:38;47.20;;;32.15;;
46222;SDS011;31943;51.410;7.564;2023-01-29T10:48:25;48.10;;;30.98;;
46222;SDS011;31943;51.410;7.564;2023-01-29T10:51:06;44.17;;;29.52;;
46222;SDS011;31943;51.410;7.564;2023-01-29T10:53:45;43.45;;;31.15;;
46222;SDS011;31943;51.410;7.564;2023-01-29T10:56:23;44.05;;;30.80;;
46222;SDS011;31943;51.410;7.564;2023-01-29T10:59:00;44.38;;;30.13;;
46222;SDS011;31943;51.410;7.564;2023-01-29T11:01:33;42.42;;;28.15;;
46222;SDS011;31943;51.410;7.564;2023-01-29T11:03:59;45.20;;;31.90;;
46222;SDS011;31943;51.410;7.564;2023-01-29T11:06:27;42.83;;;30.20;;
46222;SDS011;31943;51.410;7.564;2023-01-29T11:08:55;42.42;;;29.55;;
46222;SDS011;31943;51.410;7.564;2023-01-29T11:11:30;39.83;;;29.52;;
46222;SDS011;31943;51.410;7.564;2023-01-29T11:14:00;40.17;;;28.85;;
46222;SDS011;31943;51.410;7.564;2023-01-29T11:16:29;42.75;;;30.70;;
46222;SDS011;31943;51.410;7.564;2023-01-29T11:18:57;38.10;;;26.20;;
46222;SDS011;31943;51.410;7.564;2023-01-29T11:21:25;39.30;;;28.15;;
46222;SDS011;31943;51.410;7.564;2023-01-29T11:24:04;39.30;;;29.30;;
46222;SDS011;31943;51.410;7.564;2023-01-29T11:26:32;41.60;;;28.80;;
46222;SDS011;31943;51.410;7.564;2023-01-29T11:29:01;37.40;;;27.88;;
46222;SDS011;31943;51.410;7.564;2023-01-29T11:31:28;37.90;;;27.60;;
46222;SDS011;31943;51.410;7.564;2023-01-29T11:34:02;40.17;;;28.13;;
46222;SDS011;31943;51.410;7.564;2023-01-29T11:36:37;37.35;;;26.98;;
46222;SDS011;31943;51.410;7.564;2023-01-29T11:39:14;39.53;;;28.35;;
46222;SDS011;31943;51.410;7.564;2023-01-29T11:41:42;41.08;;;29.33;;
46222;SDS011;31943;51.410;7.564;2023-01-29T11:44:19;37.42;;;27.70;;
46222;SDS011;31943;51.410;7.564;2023-01-29T11:46:46;36.92;;;27.13;;
46222;SDS011;31943;51.410;7.564;2023-01-29T11:49:20;40.63;;;27.73;;
46222;SDS011;31943;51.410;7.564;2023-01-29T11:51:53;39.28;;;28.63;;
46222;SDS011;31943;51.410;7.564;2023-01-29T11:54:20;37.88;;;28.50;;
46222;SDS011;31943;51.410;7.564;2023-01-29T11:56:52;41.78;;;30.33;;
46222;SDS011;31943;51.410;7.564;2023-01-29T11:59:31;38.03;;;27.45;;
46222;SDS011;31943;51.410;7.564;2023-01-29T12:02:04;37.10;;;26.92;;
46222;SDS011;31943;51.410;7.564;2023-01-29T12:04:42;37.55;;;26.88;;
46222;SDS011;31943;51.410;7.564;2023-01-29T12:07:10;38.33;;;29.27;;
46222;SDS011;31943;51.410;7.564;2023-01-29T12:09:38;37.42;;;28.13;;
46222;SDS011;31943;51.410;7.564;2023-01-29T12:12:16;42.17;;;28.80;;
46222;SDS011;31943;51.410;7.564;2023-01-29T12:14:55;37.88;;;27.45;;
46222;SDS011;31943;51.410;7.564;2023-01-29T12:17:28;37.17;;;27.23;;
46222;SDS011;31943;51.410;7.564;2023-01-29T12:20:00;34.85;;;25.77;;
46222;SDS011;31943;51.410;7.564;2023-01-29T12:22:32;34.05;;;26.08;;
46222;SDS011;31943;51.410;7.564;2023-01-29T12:25:06;37.60;;;26.98;;
46222;SDS011;31943;51.410;7.564;2023-01-29T12:27:45;36.85;;;26.73;;
46222;SDS011;31943;51.410;7.564;2023-01-29T12:30:18;35.30;;;25.40;;
46222;SDS011;31943;51.410;7.564;2023-01-29T12:32:51;34.88;;;25.05;;
46222;SDS011;31943;51.410;7.564;2023-01-29T12:35:23;33.85;;;24.60;;
46222;SDS011;31943;51.410;7.564;2023-01-29T12:40:22;34.50;;;24.83;;
46222;SDS011;31943;51.410;7.564;2023-01-29T12:42:52;32.45;;;23.40;;
46222;SDS011;31943;51.410;7.564;2023-01-29T12:45:21;32.47;;;23.88;;
46222;SDS011;31943;51.410;7.564;2023-01-29T12:47:50;36.58;;;24.75;;
46222;SDS011;31943;51.410;7.564;2023-01-29T12:50:19;35.85;;;25.63;;
46222;SDS011;31943;51.410;7.564;2023-01-29T12:52:49;34.15;;;25.48;;
46222;SDS011;31943;51.410;7.564;2023-01-29T12:55:19;35.05;;;25.20;;
46222;SDS011;31943;51.410;7.564;2023-01-29T12:57:49;32.97;;;24.83;;
46222;SDS011;31943;51.410;7.564;2023-01-29T13:00:20;37.17;;;26.88;;
46222;SDS011;31943;51.410;7.564;2023-01-29T13:02:48;33.47;;;24.88;;
46222;SDS011;31943;51.410;7.564;2023-01-29T13:05:22;33.25;;;23.65;;
46222;SDS011;31943;51.410;7.564;2023-01-29T13:07:53;35.97;;;24.80;;
46222;SDS011;31943;51.410;7.564;2023-01-29T13:10:26;34.53;;;25.02;;
46222;SDS011;31943;51.410;7.564;2023-01-29T13:12:56;31.60;;;23.13;;
46222;SDS011;31943;51.410;7.564;2023-01-29T13:15:27;37.83;;;24.48;;
46222;SDS011;31943;51.410;7.564;2023-01-29T13:17:58;35.30;;;24.38;;
46222;SDS011;31943;51.410;7.564;2023-01-29T13:20:37;34.47;;;24.90;;
46222;SDS011;31943;51.410;7.564;2023-01-29T13:23:11;34.00;;;24.38;;
46222;SDS011;31943;51.410;7.564;2023-01-29T13:25:43;33.45;;;24.30;;
46222;SDS011;31943;51.410;7.564;2023-01-29T13:28:14;33.55;;;22.50;;
46222;SDS011;31943;51.410;7.564;2023-01-29T13:30:41;34.90;;;23.85;;
46222;SDS011;31943;51.410;7.564;2023-01-29T13:33:14;32.92;;;23.02;;
46222;SDS011;31943;51.410;7.564;2023-01-29T13:35:47;31.10;;;22.35;;
46222;SDS011;31943;51.410;7.564;2023-01-29T13:38:25;30.52;;;21.75;;
46222;SDS011;31943;51.410;7.564;2023-01-29T13:40:54;31.85;;;23.23;;
46222;SDS011;31943;51.410;7.564;2023-01-29T13:43:25;35.28;;;25.27;;
46222;SDS011;31943;51.410;7.564;2023-01-29T13:45:55;32.13;;;22.45;;
46222;SDS011;31943;51.410;7.564;2023-01-29T13:48:22;31.20;;;22.85;;
46222;SDS011;31943;51.410;7.564;2023-01-29T13:50:51;32.15;;;23.15;;
46222;SDS011;31943;51.410;7.564;2023-01-29T13:53:19;32.30;;;23.38;;
46222;SDS011;31943;51.410;7.564;2023-01-29T13:55:51;28.13;;;20.77;;
46222;SDS011;31943;51.410;7.564;2023-01-29T13:58:20;30.25;;;22.30;;
46222;SDS011;31943;51.410;7.564;2023-01-29T14:01:18;33.03;;;22.75;;
46222;SDS011;31943;51.410;7.564;2023-01-29T14:04:23;33.38;;;22.15;;
46222;SDS011;31943;51.410;7.564;2023-01-29T14:06:52;27.95;;;21.42;;
46222;SDS011;31943;51.410;7.564;2023-01-29T14:09:31;28.88;;;21.33;;
46222;SDS011;31943;51.410;7.564;2023-01-29T14:12:30;28.08;;;20.35;;
46222;SDS011;31943;51.410;7.564;2023-01-29T14:15:03;27.75;;;19.88;;
46222;SDS011;31943;51.410;7.564;2023-01-29T14:17:39;27.92;;;19.70;;
46222;SDS011;31943;51.410;7.564;2023-01-29T14:20:18;25.88;;;19.23;;
46222;SDS011;31943;51.410;7.564;2023-01-29T14:22:51;28.77;;;19.77;;
46222;SDS011;31943;51.410;7.564;2023-01-29T14:25:19;30.98;;;20.42;;
46222;SDS011;31943;51.410;7.564;2023-01-29T14:27:54;32.42;;;22.67;;
46222;SDS011;31943;51.410;7.564;2023-01-29T14:30:21;29.95;;;20.83;;
46222;SDS011;31943;51.410;7.564;2023-01-29T14:32:49;30.00;;;21.80;;
46222;SDS011;31943;51.410;7.564;2023-01-29T14:35:17;33.42;;;23.45;;
46222;SDS011;31943;51.410;7.564;2023-01-29T14:37:45;52.88;;;37.67;;
46222;SDS011;31943;51.410;7.564;2023-01-29T14:40:14;33.20;;;24.13;;
46222;SDS011;31943;51.410;7.564;2023-01-29T14:42:53;34.55;;;25.60;;
46222;SDS011;31943;51.410;7.564;2023-01-29T14:45:26;30.83;;;20.80;;
46222;SDS011;31943;51.410;7.564;2023-01-29T14:47:58;31.75;;;21.98;;
46222;SDS011;31943;51.410;7.564;2023-01-29T14:50:42;29.58;;;20.60;;
46222;SDS011;31943;51.410;7.564;2023-01-29T14:53:12;28.50;;;20.38;;
46222;SDS011;31943;51.410;7.564;2023-01-29T14:55:44;31.40;;;20.00;;
46222;SDS011;31943;51.410;7.564;2023-01-29T14:58:17;28.33;;;19.95;;
46222;SDS011;31943;51.410;7.564;2023-01-29T15:00:44;30.98;;;21.10;;
46222;SDS011;31943;51.410;7.564;2023-01-29T15:03:18;23.27;;;17.42;;
46222;SDS011;31943;51.410;7.564;2023-01-29T15:05:50;26.92;;;18.90;;
46222;SDS011;31943;51.410;7.564;2023-01-29T15:08:18;24.05;;;18.02;;
46222;SDS011;31943;51.410;7.564;2023-01-29T15:10:49;26.58;;;17.80;;
46222;SDS011;31943;51.410;7.564;2023-01-29T15:13:27;26.30;;;18.35;;
46222;SDS011;31943;51.410;7.564;2023-01-29T15:16:01;24.48;;;17.35;;
46222;SDS011;31943;51.410;7.564;2023-01-29T15:18:33;28.13;;;19.00;;
46222;SDS011;31943;51.410;7.564;2023-01-29T15:21:02;24.02;;;16.95;;
46222;SDS011;31943;51.410;7.564;2023-01-29T15:23:30;23.63;;;17.38;;
46222;SDS011;31943;51.410;7.564;2023-01-29T15:25:58;25.38;;;17.65;;
46222;SDS011;31943;51.410;7.564;2023-01-29T15:28:28;26.40;;;18.90;;
46222;SDS011;31943;51.410;7.564;2023-01-29T15:30:56;23.85;;;17.98;;
46222;SDS011;31943;51.410;7.564;2023-01-29T15:33:23;25.20;;;18.05;;
46222;SDS011;31943;51.410;7.564;2023-01-29T15:35:54;23.98;;;16.73;;
46222;SDS011;31943;51.410;7.564;2023-01-29T15:38:21;26.50;;;19.75;;
46222;SDS011;31943;51.410;7.564;2023-01-29T15:40:51;24.13;;;16.60;;
46222;SDS011;31943;51.410;7.564;2023-01-29T15:43:19;25.00;;;17.15;;
46222;SDS011;31943;51.410;7.564;2023-01-29T15:45:47;25.95;;;17.17;;
46222;SDS011;31943;51.410;7.564;2023-01-29T15:48:16;26.05;;;17.38;;
46222;SDS011;31943;51.410;7.564;2023-01-29T15:50:44;25.10;;;17.80;;
46222;SDS011;31943;51.410;7.564;2023-01-29T15:53:12;23.25;;;16.90;;
46222;SDS011;31943;51.410;7.564;2023-01-29T15:55:42;25.30;;;17.77;;
46222;SDS011;31943;51.410;7.564;2023-01-29T15:58:11;25.38;;;17.85;;
46222;SDS011;31943;51.410;7.564;2023-01-29T16:00:48;26.42;;;18.88;;
46222;SDS011;31943;51.410;7.564;2023-01-29T16:03:18;26.77;;;18.05;;
46222;SDS011;31943;51.410;7.564;2023-01-29T16:05:46;23.20;;;16.55;;
46222;SDS011;31943;51.410;7.564;2023-01-29T16:08:12;26.45;;;18.33;;
46222;SDS011;31943;51.410;7.564;2023-01-29T16:10:40;25.15;;;17.38;;
46222;SDS011;31943;51.410;7.564;2023-01-29T16:13:07;25.85;;;16.17;;
46222;SDS011;31943;51.410;7.564;2023-01-29T16:15:52;26.85;;;16.88;;
46222;SDS011;31943;51.410;7.564;2023-01-29T16:18:23;26.17;;;17.92;;
46222;SDS011;31943;51.410;7.564;2023-01-29T16:20:52;26.80;;;17.65;;
46222;SDS011;31943;51.410;7.564;2023-01-29T16:23:22;24.67;;;17.15;;
46222;SDS011;31943;51.410;7.564;2023-01-29T16:25:50;28.27;;;18.60;;
46222;SDS011;31943;51.410;7.564;2023-01-29T16:28:16;29.35;;;20.17;;
46222;SDS011;31943;51.410;7.564;2023-01-29T16:30:43;27.52;;;18.90;;
46222;SDS011;31943;51.410;7.564;2023-01-29T16:33:13;31.05;;;19.67;;
46222;SDS011;31943;51.410;7.564;2023-01-29T16:35:40;26.15;;;16.85;;
46222;SDS011;31943;51.410;7.564;2023-01-29T16:38:12;26.00;;;18.17;;
46222;SDS011;31943;51.410;7.564;2023-01-29T16:46:23;36.70;;;24.33;;
46222;SDS011;31943;51.410;7.564;2023-01-29T16:48:53;30.25;;;20.40;;
46222;SDS011;31943;51.410;7.564;2023-01-29T16:51:25;35.63;;;25.17;;
46222;SDS011;31943;51.410;7.564;2023-01-29T16:54:00;42.92;;;28.05;;
46222;SDS011;31943;51.410;7.564;2023-01-29T16:56:31;28.48;;;19.88;;
46222;SDS011;31943;51.410;7.564;2023-01-29T16:58:58;31.20;;;21.48;;
46222;SDS011;31943;51.410;7.564;2023-01-29T17:01:27;29.98;;;20.02;;
46222;SDS011;31943;51.410;7.564;2023-01-29T17:03:58;28.15;;;20.35;;
46222;SDS011;31943;51.410;7.564;2023-01-29T17:06:29;26.48;;;19.55;;
46222;SDS011;31943;51.410;7.564;2023-01-29T17:08:56;30.83;;;20.30;;
46222;SDS011;31943;51.410;7.564;2023-01-29T17:11:23;29.33;;;20.17;;
46222;SDS011;31943;51.410;7.564;2023-01-29T17:13:53;29.30;;;20.77;;
46222;SDS011;31943;51.410;7.564;2023-01-29T17:16:22;27.33;;;19.30;;
46222;SDS011;31943;51.410;7.564;2023-01-29T17:18:50;32.25;;;21.75;;
46222;SDS011;31943;51.410;7.564;2023-01-29T17:21:17;28.85;;;19.80;;
46222;SDS011;31943;51.410;7.564;2023-01-29T17:23:43;28.95;;;19.20;;
46222;SDS011;31943;51.410;7.564;2023-01-29T17:26:11;26.38;;;19.20;;
46222;SDS011;31943;51.410;7.564;2023-01-29T17:28:38;26.38;;;18.38;;
46222;SDS011;31943;51.410;7.564;2023-01-29T17:31:04;27.73;;;19.63;;
46222;SDS011;31943;51.410;7.564;2023-01-29T17:33:31;28.65;;;18.45;;
46222;SDS011;31943;51.410;7.564;2023-01-29T17:35:57;26.73;;;18.23;;
46222;SDS011;31943;51.410;7.564;2023-01-29T17:38:24;26.88;;;18.42;;
46222;SDS011;31943;51.410;7.564;2023-01-29T17:40:51;27.20;;;18.02;;
46222;SDS011;31943;51.410;7.564;2023-01-29T17:43:20;27.05;;;18.42;;
46222;SDS011;31943;51.410;7.564;2023-01-29T17:45:52;28.20;;;18.08;;
46222;SDS011;31943;51.410;7.564;2023-01-29T17:48:19;26.63;;;16.92;;
46222;SDS011;31943;51.410;7.564;2023-01-29T17:50:48;29.10;;;18.08;;
46222;SDS011;31943;51.410;7.564;2023-01-29T17:53:16;28.17;;;19.02;;
46222;SDS011;31943;51.410;7.564;2023-01-29T17:55:44;27.35;;;18.15;;
46222;SDS011;31943;51.410;7.564;2023-01-29T17:58:12;26.67;;;17.35;;
46222;SDS011;31943;51.410;7.564;2023-01-29T18:00:43;25.08;;;17.77;;
46222;SDS011;31943;51.410;7.564;2023-01-29T18:03:10;24.85;;;17.55;;
46222;SDS011;31943;51.410;7.564;2023-01-29T18:05:37;28.02;;;18.63;;
46222;SDS011;31943;51.410;7.564;2023-01-29T18:08:03;27.88;;;19.48;;
46222;SDS011;31943;51.410;7.564;2023-01-29T18:10:30;32.70;;;21.75;;
46222;SDS011;31943;51.410;7.564;2023-01-29T18:12:57;31.70;;;21.77;;
46222;SDS011;31943;51.410;7.564;2023-01-29T18:15:26;28.75;;;18.50;;
46222;SDS011;31943;51.410;7.564;2023-01-29T18:17:52;44.78;;;30.15;;
46222;SDS011;31943;51.410;7.564;2023-01-29T18:20:19;37.50;;;25.55;;
46222;SDS011;31943;51.410;7.564;2023-01-29T18:22:47;34.60;;;23.45;;
46222;SDS011;31943;51.410;7.564;2023-01-29T18:25:14;31.90;;;22.23;;
46222;SDS011;31943;51.410;7.564;2023-01-29T18:28:09;30.15;;;20.20;;
46222;SDS011;31943;51.410;7.564;2023-01-29T18:30:39;24.33;;;17.90;;
46222;SDS011;31943;51.410;7.564;2023-01-29T18:33:06;34.15;;;22.23;;
46222;SDS011;31943;51.410;7.564;2023-01-29T18:35:38;31.88;;;21.38;;
46222;SDS011;31943;51.410;7.564;2023-01-29T18:38:05;34.88;;;22.70;;
46222;SDS011;31943;51.410;7.564;2023-01-29T18:40:34;32.88;;;22.02;;
46222;SDS011;31943;51.410;7.564;2023-01-29T18:43:01;28.70;;;18.42;;
46222;SDS011;31943;51.410;7.564;2023-01-29T18:50:38;28.63;;;18.85;;
46222;SDS011;31943;51.410;7.564;2023-01-29T18:53:05;25.75;;;17.50;;
46222;SDS011;31943;51.410;7.564;2023-01-29T18:55:30;25.02;;;17.10;;
46222;SDS011;31943;51.410;7.564;2023-01-29T18:57:57;24.25;;;15.68;;
46222;SDS011;31943;51.410;7.564;2023-01-29T19:00:25;23.13;;;16.15;;
46222;SDS011;31943;51.410;7.564;2023-01-29T19:02:53;20.60;;;14.98;;
46222;SDS011;31943;51.410;7.564;2023-01-29T19:05:21;24.27;;;15.70;;
46222;SDS011;31943;51.410;7.564;2023-01-29T19:07:47;21.75;;;13.90;;
46222;SDS011;31943;51.410;7.564;2023-01-29T19:10:13;22.35;;;16.58;;
46222;SDS011;31943;51.410;7.564;2023-01-29T19:12:39;22.08;;;15.10;;
46222;SDS011;31943;51.410;7.564;2023-01-29T19:15:05;22.48;;;15.73;;
46222;SDS011;31943;51.410;7.564;2023-01-29T19:17:32;23.40;;;15.35;;
46222;SDS011;31943;51.410;7.564;2023-01-29T19:20:21;26.17;;;17.02;;
46222;SDS011;31943;51.410;7.564;2023-01-29T19:22:46;25.33;;;17.02;;
46222;SDS011;31943;51.410;7.564;2023-01-29T19:25:12;21.35;;;14.98;;
46222;SDS011;31943;51.410;7.564;2023-01-29T19:27:38;22.77;;;16.77;;
46222;SDS011;31943;51.410;7.564;2023-01-29T19:30:05;22.92;;;15.85;;
46222;SDS011;31943;51.410;7.564;2023-01-29T19:32:31;20.83;;;15.45;;
46222;SDS011;31943;51.410;7.564;2023-01-29T19:34:57;24.73;;;17.80;;
46222;SDS011;31943;51.410;7.564;2023-01-29T19:37:24;24.15;;;16.33;;
46222;SDS011;31943;51.410;7.564;2023-01-29T19:39:50;25.60;;;16.25;;
46222;SDS011;31943;51.410;7.564;2023-01-29T19:42:16;23.58;;;17.05;;
46222;SDS011;31943;51.410;7.564;2023-01-29T19:44:42;23.92;;;16.90;;
46222;SDS011;31943;51.410;7.564;2023-01-29T19:47:08;26.40;;;17.42;;
46222;SDS011;31943;51.410;7.564;2023-01-29T19:49:33;25.65;;;16.85;;
46222;SDS011;31943;51.410;7.564;2023-01-29T19:51:59;21.55;;;15.35;;
46222;SDS011;31943;51.410;7.564;2023-01-29T19:54:26;21.20;;;15.65;;
46222;SDS011;31943;51.410;7.564;2023-01-29T19:56:52;22.48;;;14.40;;
46222;SDS011;31943;51.410;7.564;2023-01-29T19:59:17;22.73;;;15.55;;
46222;SDS011;31943;51.410;7.564;2023-01-29T20:01:43;22.50;;;14.88;;
46222;SDS011;31943;51.410;7.564;2023-01-29T20:04:09;19.27;;;14.57;;
46222;SDS011;31943;51.410;7.564;2023-01-29T20:06:36;22.42;;;14.50;;
46222;SDS011;31943;51.410;7.564;2023-01-29T20:09:02;22.10;;;15.55;;
46222;SDS011;31943;51.410;7.564;2023-01-29T20:11:31;21.10;;;13.77;;
46222;SDS011;31943;51.410;7.564;2023-01-29T20:13:58;22.67;;;15.68;;
46222;SDS011;31943;51.410;7.564;2023-01-29T20:16:24;22.92;;;15.43;;
46222;SDS011;31943;51.410;7.564;2023-01-29T20:18:50;21.92;;;14.95;;
46222;SDS011;31943;51.410;7.564;2023-01-29T20:21:17;24.88;;;15.70;;
46222;SDS011;31943;51.410;7.564;2023-01-29T20:23:44;21.92;;;15.52;;
46222;SDS011;31943;51.410;7.564;2023-01-29T20:26:10;26.60;;;17.83;;
46222;SDS011;31943;51.410;7.564;2023-01-29T20:28:39;22.42;;;16.17;;
46222;SDS011;31943;51.410;7.564;2023-01-29T20:31:05;26.45;;;18.35;;
46222;SDS011;31943;51.410;7.564;2023-01-29T20:33:32;25.65;;;18.25;;
46222;SDS011;31943;51.410;7.564;2023-01-29T20:35:59;25.67;;;18.48;;
46222;SDS011;31943;51.410;7.564;2023-01-29T20:38:26;26.90;;;18.30;;
46222;SDS011;31943;51.410;7.564;2023-01-29T20:40:53;26.65;;;19.30;;
46222;SDS011;31943;51.410;7.564;2023-01-29T20:43:18;21.45;;;15.15;;
46222;SDS011;31943;51.410;7.564;2023-01-29T20:45:47;25.55;;;16.98;;
46222;SDS011;31943;51.410;7.564;2023-01-29T20:48:13;24.65;;;16.45;;
46222;SDS011;31943;51.410;7.564;2023-01-29T20:50:38;26.48;;;18.80;;
46222;SDS011;31943;51.410;7.564;2023-01-29T20:53:04;24.08;;;16.58;;
46222;SDS011;31943;51.410;7.564;2023-01-29T20:55:30;21.48;;;15.27;;
46222;SDS011;31943;51.410;7.564;2023-01-29T20:57:55;24.05;;;16.05;;
46222;SDS011;31943;51.410;7.564;2023-01-29T21:00:21;22.25;;;15.45;;
46222;SDS011;31943;51.410;7.564;2023-01-29T21:02:48;24.08;;;16.63;;
46222;SDS011;31943;51.410;7.564;2023-01-29T21:05:14;23.00;;;16.55;;
46222;SDS011;31943;51.410;7.564;2023-01-29T21:07:42;23.55;;;16.38;;
46222;SDS011;31943;51.410;7.564;2023-01-29T21:10:07;23.90;;;15.65;;
46222;SDS011;31943;51.410;7.564;2023-01-29T21:12:35;24.38;;;15.85;;
46222;SDS011;31943;51.410;7.564;2023-01-29T21:15:01;24.23;;;15.02;;
46222;SDS011;31943;51.410;7.564;2023-01-29T21:17:26;22.65;;;15.02;;
46222;SDS011;31943;51.410;7.564;2023-01-29T21:19:54;21.73;;;14.60;;
46222;SDS011;31943;51.410;7.564;2023-01-29T21:22:19;24.45;;;15.45;;
46222;SDS011;31943;51.410;7.564;2023-01-29T21:24:45;22.35;;;15.40;;
46222;SDS011;31943;51.410;7.564;2023-01-29T21:27:10;22.80;;;15.90;;
46222;SDS011;31943;51.410;7.564;2023-01-29T21:29:36;23.77;;;15.20;;
46222;SDS011;31943;51.410;7.564;2023-01-29T21:32:02;23.77;;;15.68;;
46222;SDS011;31943;51.410;7.564;2023-01-29T21:34:28;24.10;;;14.70;;
46222;SDS011;31943;51.410;7.564;2023-01-29T21:36:55;24.73;;;16.15;;
46222;SDS011;31943;51.410;7.564;2023-01-29T21:39:20;22.15;;;15.32;;
46222;SDS011;31943;51.410;7.564;2023-01-29T21:41:47;24.60;;;15.77;;
46222;SDS011;31943;51.410;7.564;2023-01-29T21:44:14;25.65;;;16.75;;
46222;SDS011;31943;51.410;7.564;2023-01-29T21:46:41;21.00;;;15.88;;